Time;durP1;ratioP1;P1;durP2;ratioP2;P2;SDS_P1;SDS_P2;PMS_P1;PMS_P2;Temp;Humidity;BMP_temperature;BMP_pressure;BME280_temperature;BME280_humidity;BME280_pressure;Samples;Min_cycle;Max_cycle;Signal;HPM_P1;HPM_P2
2023/11/30 00:00:36;;;;;;;13.25;5.00;;;8.10;99.90;;;;;;4968522;28;20031;-77
2023/11/30 00:03:02;;;;;;;8.07;5.05;;;8.10;99.90;;;;;;4971975;28;20539;-78
2023/11/30 00:05:28;;;;;;;8.82;5.28;;;8.10;99.90;;;;;;4972440;28;20550;-77
2023/11/30 00:07:53;;;;;;;10.25;5.70;;;8.20;99.90;;;;;;4970499;28;20026;-78
2023/11/30 00:10:19;;;;;;;13.18;5.15;;;8.10;99.90;;;;;;4964980;28;20022;-76
2023/11/30 00:12:44;;;;;;;9.63;5.45;;;8.10;99.90;;;;;;4972227;28;20029;-77
2023/11/30 00:15:10;;;;;;;11.20;5.10;;;8.10;99.90;;;;;;4972053;28;20031;-75
2023/11/30 00:17:35;;;;;;;11.07;5.78;;;8.10;99.90;;;;;;4972728;28;20054;-74
2023/11/30 00:20:01;;;;;;;10.77;5.68;;;8.10;99.90;;;;;;4970197;28;20490;-77
2023/11/30 00:22:26;;;;;;;11.65;5.38;;;8.10;99.90;;;;;;4965697;28;20026;-77
2023/11/30 00:24:52;;;;;;;11.65;5.47;;;8.10;99.90;;;;;;4969192;28;20027;-77
2023/11/30 00:27:17;;;;;;;8.77;5.53;;;8.10;99.90;;;;;;4969182;28;20015;-75
2023/11/30 00:29:43;;;;;;;10.98;5.30;;;8.10;99.90;;;;;;4972002;28;20101;-76
2023/11/30 00:32:08;;;;;;;10.35;5.38;;;8.10;99.90;;;;;;4972497;28;20015;-78
2023/11/30 00:34:34;;;;;;;9.45;5.25;;;8.10;99.90;;;;;;4963984;28;20015;-78
2023/11/30 00:36:59;;;;;;;9.25;5.07;;;8.10;99.90;;;;;;4968545;28;20488;-76
2023/11/30 00:39:25;;;;;;;11.95;5.90;;;8.10;99.90;;;;;;4969639;28;20023;-77
2023/11/30 00:41:50;;;;;;;9.55;5.40;;;8.10;99.90;;;;;;4972711;28;20030;-75
2023/11/30 00:44:18;;;;;;;10.13;5.45;;;8.10;99.90;;;;;;4971754;28;20054;-78
2023/11/30 00:46:43;;;;;;;10.23;5.55;;;8.10;99.90;;;;;;4967384;28;20023;-77
2023/11/30 00:49:09;;;;;;;11.75;6.32;;;8.10;99.90;;;;;;4970399;28;20085;-79
2023/11/30 00:51:35;;;;;;;11.57;5.75;;;8.10;99.90;;;;;;4971614;28;20031;-79
2023/11/30 00:54:00;;;;;;;7.55;4.80;;;8.10;99.90;;;;;;4970379;28;20023;-77
2023/11/30 00:56:26;;;;;;;8.82;4.85;;;8.10;99.90;;;;;;4992705;28;20054;-77
2023/11/30 00:58:51;;;;;;;9.75;4.95;;;8.10;99.90;;;;;;4968139;28;20023;-77
2023/11/30 01:01:17;;;;;;;9.95;5.40;;;8.10;99.90;;;;;;4966151;28;20081;-76
2023/11/30 01:03:42;;;;;;;8.25;4.80;;;8.10;99.90;;;;;;4971529;28;20530;-76
2023/11/30 01:06:08;;;;;;;7.45;5.00;;;8.10;99.90;;;;;;4971129;28;20384;-78
2023/11/30 01:08:34;;;;;;;11.02;4.95;;;8.10;99.90;;;;;;4960838;28;20799;-77
2023/11/30 01:11:02;;;;;;;15.68;6.85;;;8.10;99.90;;;;;;4962785;28;20086;-76
2023/11/30 01:13:27;;;;;;;10.25;5.78;;;8.10;99.90;;;;;;4965777;28;20118;-76
2023/11/30 01:15:53;;;;;;;12.85;5.63;;;8.10;99.90;;;;;;4971076;28;20126;-76
2023/11/30 01:18:18;;;;;;;9.82;5.93;;;8.10;99.90;;;;;;4970422;28;20049;-76
2023/11/30 01:20:44;;;;;;;8.70;5.35;;;8.10;99.90;;;;;;4971426;28;20094;-76
2023/11/30 01:23:09;;;;;;;14.05;5.85;;;8.10;99.90;;;;;;4965013;28;20025;-76
2023/11/30 01:25:35;;;;;;;12.60;5.72;;;8.10;99.90;;;;;;4967456;28;20370;-76
2023/11/30 01:28:00;;;;;;;13.23;5.70;;;8.10;99.90;;;;;;4969235;28;20361;-77
2023/11/30 01:30:26;;;;;;;12.70;6.00;;;8.10;99.90;;;;;;4957448;28;20030;-77
2023/11/30 01:32:51;;;;;;;12.18;6.07;;;8.10;99.90;;;;;;4971393;28;20380;-76
2023/11/30 01:35:17;;;;;;;10.60;6.05;;;8.10;99.90;;;;;;4965089;28;20042;-77
2023/11/30 01:37:42;;;;;;;13.80;5.78;;;8.10;99.90;;;;;;4966786;28;20054;-76
2023/11/30 01:40:08;;;;;;;11.32;5.50;;;8.10;99.90;;;;;;4968295;28;20023;-75
2023/11/30 01:42:35;;;;;;;12.35;6.32;;;8.10;99.90;;;;;;4968843;28;20031;-76
2023/11/30 01:45:00;;;;;;;11.68;5.72;;;8.10;99.90;;;;;;4971044;28;20019;-76
2023/11/30 01:47:26;;;;;;;10.60;5.38;;;8.10;99.90;;;;;;4963173;28;20033;-76
2023/11/30 01:49:52;;;;;;;10.43;5.93;;;8.10;99.90;;;;;;4967774;28;20058;-76
2023/11/30 01:52:17;;;;;;;9.63;5.90;;;8.10;99.90;;;;;;4967915;28;20023;-76
2023/11/30 01:54:44;;;;;;;13.88;5.55;;;8.10;99.90;;;;;;4967898;28;20492;-78
2023/11/30 01:57:10;;;;;;;15.93;6.10;;;8.10;99.90;;;;;;4969584;28;20539;-76
2023/11/30 01:59:35;;;;;;;10.40;5.43;;;8.10;99.90;;;;;;4966153;28;20049;-76
2023/11/30 02:02:01;;;;;;;9.20;5.88;;;8.10;99.90;;;;;;4964120;28;20056;-79
2023/11/30 02:04:29;;;;;;;14.15;6.15;;;8.10;99.90;;;;;;4974586;28;20019;-75
2023/11/30 02:06:54;;;;;;;11.38;6.30;;;8.10;99.90;;;;;;4964072;28;20627;-77
2023/11/30 02:09:20;;;;;;;11.68;6.03;;;8.10;99.90;;;;;;4970310;28;20107;-76
2023/11/30 02:11:47;;;;;;;10.43;5.65;;;8.10;99.90;;;;;;4964566;28;20054;-75
2023/11/30 02:14:12;;;;;;;8.85;5.57;;;8.10;99.90;;;;;;4964561;28;20031;-76
2023/11/30 02:16:38;;;;;;;14.55;6.22;;;8.10;99.90;;;;;;4968167;28;20566;-76
2023/11/30 02:19:03;;;;;;;12.23;6.43;;;8.10;99.90;;;;;;4967114;28;20023;-77
2023/11/30 02:21:30;;;;;;;11.73;6.50;;;8.10;99.90;;;;;;4968538;28;20055;-76
2023/11/30 02:23:55;;;;;;;10.18;5.78;;;8.10;99.90;;;;;;4965898;28;20019;-75
2023/11/30 02:26:21;;;;;;;12.02;6.03;;;8.10;99.90;;;;;;4964502;28;20034;-76
2023/11/30 02:28:46;;;;;;;11.68;6.40;;;8.10;99.90;;;;;;4965192;28;20082;-76
2023/11/30 02:31:12;;;;;;;11.55;5.90;;;8.10;99.90;;;;;;4968266;28;20496;-77
2023/11/30 02:33:37;;;;;;;9.35;5.68;;;8.10;99.90;;;;;;4975155;28;20023;-77
2023/11/30 02:36:03;;;;;;;14.95;6.63;;;8.10;99.90;;;;;;4963450;28;20031;-75
2023/11/30 02:38:28;;;;;;;14.20;7.47;;;8.10;99.90;;;;;;4963131;28;20026;-76
2023/11/30 02:40:54;;;;;;;10.90;5.70;;;8.10;99.90;;;;;;4970084;28;20023;-77
2023/11/30 02:43:20;;;;;;;12.35;6.78;;;8.10;99.90;;;;;;4967322;28;20015;-76
2023/11/30 02:45:45;;;;;;;7.90;5.50;;;8.10;99.90;;;;;;4958926;28;20113;-76
2023/11/30 02:48:11;;;;;;;9.70;6.18;;;8.10;99.90;;;;;;4966388;28;20500;-77
2023/11/30 02:50:36;;;;;;;9.60;6.22;;;8.10;99.90;;;;;;4961768;28;20502;-76
2023/11/30 02:53:02;;;;;;;10.50;5.53;;;8.10;99.90;;;;;;4968789;28;20027;-77
2023/11/30 02:55:27;;;;;;;11.27;6.20;;;8.10;99.90;;;;;;4966102;28;20031;-76
2023/11/30 02:57:53;;;;;;;14.25;6.38;;;8.10;99.90;;;;;;4968966;28;20061;-77
2023/11/30 03:00:18;;;;;;;12.70;6.00;;;8.10;99.90;;;;;;4970355;28;20015;-77
2023/11/30 03:02:44;;;;;;;14.27;6.60;;;8.10;99.90;;;;;;4958683;28;20031;-77
2023/11/30 03:05:10;;;;;;;12.75;6.78;;;8.10;99.90;;;;;;4965263;28;20107;-77
2023/11/30 03:07:36;;;;;;;12.48;6.50;;;8.00;99.90;;;;;;4970699;28;20076;-76
2023/11/30 03:10:01;;;;;;;12.15;6.03;;;8.10;99.90;;;;;;4970380;28;20037;-78
2023/11/30 03:12:27;;;;;;;10.90;5.75;;;8.10;99.90;;;;;;4969804;28;20029;-76
2023/11/30 03:14:52;;;;;;;11.52;6.45;;;8.10;99.90;;;;;;4968944;28;20035;-77
2023/11/30 03:17:18;;;;;;;12.77;6.03;;;8.10;99.90;;;;;;4960277;28;20031;-76
2023/11/30 03:19:43;;;;;;;8.80;5.78;;;8.10;99.90;;;;;;4958355;28;20058;-77
2023/11/30 03:22:09;;;;;;;12.20;6.30;;;8.10;99.90;;;;;;4968037;28;20015;-77
2023/11/30 03:24:35;;;;;;;11.27;5.90;;;8.10;99.90;;;;;;4968118;28;20029;-78
2023/11/30 03:27:00;;;;;;;9.98;6.20;;;8.00;99.90;;;;;;4961884;28;20086;-76
2023/11/30 03:29:26;;;;;;;12.18;6.00;;;8.10;99.90;;;;;;4974091;28;20481;-77
2023/11/30 03:31:51;;;;;;;12.05;5.85;;;8.10;99.90;;;;;;4970046;28;20543;-76
2023/11/30 03:34:17;;;;;;;12.20;5.90;;;8.10;99.90;;;;;;4969848;28;20547;-76
2023/11/30 03:36:42;;;;;;;13.07;5.50;;;8.00;99.90;;;;;;4969166;28;20050;-77
2023/11/30 03:39:08;;;;;;;14.27;5.80;;;8.10;99.90;;;;;;4968762;28;20019;-77
2023/11/30 03:41:34;;;;;;;10.45;5.93;;;8.10;99.90;;;;;;4969921;28;20034;-75
2023/11/30 03:44:00;;;;;;;9.88;5.30;;;8.10;99.90;;;;;;4972993;28;20027;-77
2023/11/30 03:46:26;;;;;;;10.48;5.47;;;8.10;99.90;;;;;;4971660;28;20161;-77
2023/11/30 03:48:53;;;;;;;10.60;5.30;;;8.10;99.90;;;;;;4973463;28;20522;-77
2023/11/30 03:51:18;;;;;;;8.68;5.80;;;8.10;99.90;;;;;;4978589;28;20559;-78
2023/11/30 03:53:44;;;;;;;11.35;6.05;;;8.10;99.90;;;;;;4972093;28;20158;-78
2023/11/30 03:56:10;;;;;;;11.50;6.53;;;8.00;99.90;;;;;;4971982;28;20057;-77
2023/11/30 03:58:35;;;;;;;15.30;6.60;;;8.10;99.90;;;;;;4974483;28;20022;-76
2023/11/30 04:01:01;;;;;;;14.77;6.25;;;8.00;99.90;;;;;;4976262;28;20027;-76
2023/11/30 04:03:26;;;;;;;10.27;5.75;;;8.10;99.90;;;;;;4973124;28;20038;-77
2023/11/30 04:05:52;;;;;;;13.45;6.72;;;8.00;99.90;;;;;;4972864;28;20026;-76
2023/11/30 04:08:17;;;;;;;11.88;5.97;;;8.10;99.90;;;;;;4973029;28;20023;-75
2023/11/30 04:10:43;;;;;;;10.52;5.85;;;8.10;99.90;;;;;;4973047;28;20023;-76
2023/11/30 04:13:09;;;;;;;11.13;6.25;;;8.10;99.90;;;;;;4973036;28;20403;-76
2023/11/30 04:15:35;;;;;;;12.48;6.40;;;8.10;99.90;;;;;;4972356;28;20026;-76
2023/11/30 04:18:00;;;;;;;10.38;6.07;;;8.10;99.90;;;;;;4978349;28;20015;-78
2023/11/30 04:20:26;;;;;;;12.93;6.57;;;8.00;99.90;;;;;;4972489;28;20026;-76
2023/11/30 04:22:51;;;;;;;12.00;6.75;;;8.10;99.90;;;;;;4971320;28;20018;-76
2023/11/30 04:25:17;;;;;;;12.35;6.32;;;8.10;99.90;;;;;;4972479;28;20026;-77
2023/11/30 04:27:42;;;;;;;13.55;7.00;;;8.10;99.90;;;;;;4972799;28;20503;-76
2023/11/30 04:30:08;;;;;;;12.20;5.82;;;8.10;99.90;;;;;;4976485;28;20027;-76
2023/11/30 04:32:34;;;;;;;13.23;6.97;;;8.10;99.90;;;;;;4972248;28;20028;-76
2023/11/30 04:34:59;;;;;;;11.45;6.70;;;8.10;99.90;;;;;;4972381;28;20023;-77
2023/11/30 04:37:25;;;;;;;11.45;6.47;;;8.10;99.90;;;;;;4972201;28;20091;-77
2023/11/30 04:39:50;;;;;;;13.75;6.20;;;8.10;99.90;;;;;;4970928;28;20033;-76
2023/11/30 04:42:16;;;;;;;11.27;6.40;;;8.00;99.90;;;;;;4972647;28;20029;-76
2023/11/30 04:44:41;;;;;;;10.20;6.38;;;8.00;99.90;;;;;;4972196;28;20023;-77
2023/11/30 04:47:07;;;;;;;11.90;6.30;;;8.10;99.90;;;;;;4971829;28;20023;-78
2023/11/30 04:49:33;;;;;;;14.15;6.57;;;8.10;99.90;;;;;;4969276;28;20555;-78
2023/11/30 04:51:58;;;;;;;10.02;5.63;;;8.10;99.90;;;;;;4971259;28;20023;-77
2023/11/30 04:54:24;;;;;;;12.68;6.88;;;8.10;99.90;;;;;;4968231;28;20562;-78
2023/11/30 04:56:50;;;;;;;12.80;6.53;;;8.00;99.90;;;;;;4971140;28;20018;-77
2023/11/30 04:59:15;;;;;;;10.25;6.13;;;8.10;99.90;;;;;;4972373;28;20480;-77
2023/11/30 05:01:41;;;;;;;13.35;6.65;;;8.00;99.90;;;;;;4971990;28;20526;-77
2023/11/30 05:04:06;;;;;;;9.55;5.50;;;8.10;99.90;;;;;;4971524;28;20027;-77
2023/11/30 05:06:32;;;;;;;13.32;6.68;;;8.10;99.90;;;;;;4972095;28;20031;-78
2023/11/30 05:08:58;;;;;;;11.52;6.43;;;8.10;99.90;;;;;;4972038;28;20504;-78
2023/11/30 05:11:24;;;;;;;11.02;6.15;;;8.00;99.90;;;;;;4970444;28;20468;-74
2023/11/30 05:13:49;;;;;;;14.50;6.18;;;8.00;99.90;;;;;;4962546;28;20030;-76
2023/11/30 05:16:15;;;;;;;17.92;6.75;;;8.00;99.90;;;;;;4971380;28;20495;-76
2023/11/30 05:18:40;;;;;;;14.45;6.57;;;8.00;99.90;;;;;;4971260;28;20126;-78
2023/11/30 05:21:07;;;;;;;13.98;7.10;;;8.00;99.90;;;;;;4971865;28;20038;-79
2023/11/30 05:23:32;;;;;;;11.02;6.00;;;8.00;99.90;;;;;;4971381;28;20042;-77
2023/11/30 05:25:58;;;;;;;13.68;6.68;;;8.10;99.90;;;;;;4971077;28;20440;-78
2023/11/30 05:28:23;;;;;;;10.73;5.60;;;8.10;99.90;;;;;;4970000;28;20018;-76
2023/11/30 05:30:49;;;;;;;10.65;6.28;;;8.10;99.90;;;;;;4970059;28;20061;-77
2023/11/30 05:33:15;;;;;;;11.30;6.55;;;8.10;99.90;;;;;;4971391;28;20026;-76
2023/11/30 05:35:41;;;;;;;11.73;6.63;;;8.00;99.90;;;;;;4970679;28;20106;-77
2023/11/30 05:38:06;;;;;;;13.15;6.78;;;8.10;99.90;;;;;;4971125;28;20019;-77
2023/11/30 05:40:32;;;;;;;10.50;6.05;;;8.10;99.90;;;;;;4971344;28;20031;-77
2023/11/30 05:42:58;;;;;;;12.93;6.18;;;8.00;99.90;;;;;;4970584;28;20061;-77
2023/11/30 05:45:23;;;;;;;11.02;6.20;;;8.10;99.90;;;;;;4971115;28;20085;-76
2023/11/30 05:47:49;;;;;;;13.05;6.57;;;8.00;99.90;;;;;;4968983;28;20031;-77
2023/11/30 05:50:15;;;;;;;10.65;6.35;;;8.00;99.90;;;;;;4970933;28;20035;-76
2023/11/30 05:52:40;;;;;;;11.32;6.25;;;8.00;99.90;;;;;;4971003;28;20037;-74
2023/11/30 05:55:07;;;;;;;15.27;6.68;;;8.10;99.90;;;;;;4971118;28;20491;-77
2023/11/30 05:57:33;;;;;;;13.32;5.82;;;8.10;99.90;;;;;;4969816;28;20104;-78
2023/11/30 05:59:59;;;;;;;10.77;5.95;;;8.00;99.90;;;;;;4973324;28;20047;-77
2023/11/30 06:02:26;;;;;;;13.70;6.65;;;8.10;99.90;;;;;;4969534;28;20544;-77
2023/11/30 06:04:53;;;;;;;10.43;6.18;;;8.10;99.90;;;;;;4977795;28;21476;-77
2023/11/30 06:07:23;;;;;;;11.60;6.43;;;8.10;99.90;;;;;;4970668;28;20019;-77
2023/11/30 06:09:49;;;;;;;13.77;6.60;;;8.00;99.90;;;;;;4970899;28;20022;-77
2023/11/30 06:12:14;;;;;;;13.15;6.88;;;8.00;99.90;;;;;;4970853;28;20085;-77
2023/11/30 06:14:40;;;;;;;15.68;7.10;;;8.10;99.90;;;;;;4970595;28;20459;-75
2023/11/30 06:17:05;;;;;;;13.32;6.18;;;8.00;99.90;;;;;;4970442;28;20136;-77
2023/11/30 06:19:31;;;;;;;12.02;7.03;;;8.10;99.90;;;;;;4970941;28;20616;-77
2023/11/30 06:21:57;;;;;;;10.32;6.15;;;8.00;99.90;;;;;;4970489;28;20019;-76
2023/11/30 06:24:22;;;;;;;13.63;7.13;;;8.10;99.90;;;;;;4966662;28;20034;-77
2023/11/30 06:26:48;;;;;;;13.07;6.18;;;8.00;99.90;;;;;;4969141;28;20114;-77
2023/11/30 06:29:15;;;;;;;11.63;6.57;;;8.10;99.90;;;;;;4970109;28;20023;-79
2023/11/30 06:31:41;;;;;;;12.07;6.32;;;8.10;99.90;;;;;;4969004;28;20037;-76
2023/11/30 06:34:07;;;;;;;12.32;6.40;;;8.00;99.90;;;;;;4970342;28;20019;-76
2023/11/30 06:36:32;;;;;;;10.18;5.93;;;8.10;99.90;;;;;;4970045;28;20515;-76
2023/11/30 06:38:58;;;;;;;12.95;6.43;;;8.10;99.90;;;;;;4970130;28;20026;-78
2023/11/30 06:41:23;;;;;;;13.50;6.65;;;8.10;99.90;;;;;;4968410;28;20465;-76
2023/11/30 06:43:49;;;;;;;11.13;6.57;;;8.00;99.90;;;;;;4971714;28;20634;-77
2023/11/30 06:46:20;;;;;;;11.65;6.93;;;8.10;99.90;;;;;;4973183;28;20038;-76
2023/11/30 06:48:47;;;;;;;14.20;6.53;;;8.10;99.90;;;;;;4970457;28;20026;-77
2023/11/30 06:51:13;;;;;;;12.30;6.93;;;8.00;99.90;;;;;;4970187;28;20020;-77
2023/11/30 06:53:38;;;;;;;9.55;6.22;;;8.10;99.90;;;;;;4973841;28;20038;-77
2023/11/30 06:56:05;;;;;;;17.73;6.50;;;8.10;99.90;;;;;;4968723;28;20027;-76
2023/11/30 06:58:30;;;;;;;12.80;6.68;;;8.00;99.90;;;;;;4973583;28;20052;-79
2023/11/30 07:00:56;;;;;;;9.48;6.07;;;8.00;99.90;;;;;;4987008;28;20552;-77
2023/11/30 07:03:23;;;;;;;13.70;7.75;;;8.00;99.90;;;;;;4970678;28;20050;-77
2023/11/30 07:05:48;;;;;;;11.77;6.43;;;8.00;99.90;;;;;;4965804;28;20062;-76
2023/11/30 07:08:14;;;;;;;10.90;6.28;;;8.00;99.90;;;;;;4968083;28;20448;-75
2023/11/30 07:10:40;;;;;;;12.32;6.30;;;8.00;99.90;;;;;;4965348;28;20443;-77
2023/11/30 07:13:06;;;;;;;12.25;6.53;;;8.00;99.90;;;;;;4967433;28;20519;-77
2023/11/30 07:15:31;;;;;;;12.07;6.55;;;8.00;99.90;;;;;;4966391;28;20165;-77
2023/11/30 07:17:57;;;;;;;11.23;6.53;;;8.10;99.90;;;;;;4967154;28;20027;-77
2023/11/30 07:20:22;;;;;;;11.98;6.15;;;8.00;99.90;;;;;;4971562;28;20062;-76
2023/11/30 07:22:48;;;;;;;10.90;6.75;;;8.00;99.90;;;;;;4973480;28;20089;-77
2023/11/30 07:25:13;;;;;;;20.88;6.78;;;8.00;99.90;;;;;;4973811;28;20050;-76
2023/11/30 07:27:39;;;;;;;9.05;5.78;;;8.00;99.90;;;;;;4970289;28;20026;-78
2023/11/30 07:30:09;;;;;;;12.63;6.35;;;8.00;99.90;;;;;;4972797;28;20037;-77
2023/11/30 07:32:34;;;;;;;12.93;6.82;;;8.10;99.90;;;;;;4974041;28;20102;-76
2023/11/30 07:35:00;;;;;;;12.93;7.05;;;8.00;99.90;;;;;;4973616;28;20110;-76
2023/11/30 07:37:26;;;;;;;12.68;6.30;;;8.10;99.90;;;;;;4972661;28;20026;-76
2023/11/30 07:39:51;;;;;;;10.75;6.43;;;8.10;99.90;;;;;;4959959;28;20027;-76
2023/11/30 07:42:19;;;;;;;14.73;7.38;;;8.00;99.90;;;;;;4968122;28;20042;-77
2023/11/30 07:44:44;;;;;;;15.00;6.97;;;8.10;99.90;;;;;;4963858;28;20142;-75
2023/11/30 07:47:11;;;;;;;12.02;6.47;;;8.10;99.90;;;;;;4965342;28;20109;-76
2023/11/30 07:49:36;;;;;;;13.38;7.15;;;8.10;99.90;;;;;;4964496;28;20031;-77
2023/11/30 07:52:02;;;;;;;16.42;7.70;;;8.10;99.90;;;;;;4970519;28;20035;-76
2023/11/30 07:54:27;;;;;;;14.55;7.40;;;8.10;99.90;;;;;;4968053;28;20023;-76
2023/11/30 07:56:53;;;;;;;11.93;6.20;;;8.10;99.90;;;;;;4967967;28;20027;-76
2023/11/30 07:59:19;;;;;;;15.25;7.40;;;8.00;99.90;;;;;;4965183;28;20024;-76
2023/11/30 08:01:44;;;;;;;12.80;6.72;;;8.10;99.90;;;;;;4961946;28;20035;-76
2023/11/30 08:04:10;;;;;;;14.48;7.80;;;8.10;99.90;;;;;;4974131;28;20046;-76
2023/11/30 08:06:35;;;;;;;13.90;6.43;;;8.10;99.90;;;;;;4968033;28;20109;-77
2023/11/30 08:09:01;;;;;;;18.35;6.68;;;8.10;99.90;;;;;;4967560;28;20098;-77
2023/11/30 08:11:27;;;;;;;12.18;5.65;;;8.10;99.90;;;;;;4960686;28;20058;-77
2023/11/30 08:13:52;;;;;;;13.07;6.85;;;8.00;99.90;;;;;;4969483;28;20307;-78
2023/11/30 08:16:17;;;;;;;11.63;6.82;;;8.10;99.90;;;;;;4971238;28;20776;-76
2023/11/30 08:18:44;;;;;;;12.65;6.65;;;8.00;99.90;;;;;;4971632;28;20496;-74
2023/11/30 08:21:09;;;;;;;11.00;6.25;;;8.10;99.90;;;;;;4972921;28;20019;-74
2023/11/30 08:23:37;;;;;;;12.95;6.75;;;8.10;99.90;;;;;;4972613;28;20094;-77
2023/11/30 08:26:03;;;;;;;12.40;6.78;;;8.10;99.90;;;;;;4968512;28;20034;-78
2023/11/30 08:28:29;;;;;;;12.43;6.00;;;8.00;99.90;;;;;;4971397;28;20432;-78
2023/11/30 08:30:55;;;;;;;10.35;6.35;;;8.00;99.90;;;;;;4970203;28;20038;-78
2023/11/30 08:33:21;;;;;;;11.50;6.65;;;8.00;99.90;;;;;;4970806;28;20060;-77
2023/11/30 08:35:46;;;;;;;11.82;6.35;;;8.10;99.90;;;;;;4970000;28;20078;-78
2023/11/30 08:38:12;;;;;;;11.20;6.15;;;8.10;99.90;;;;;;4969846;28;20305;-76
2023/11/30 08:40:37;;;;;;;14.75;6.55;;;8.10;99.90;;;;;;4970800;28;20101;-76
2023/11/30 08:43:03;;;;;;;13.70;5.80;;;8.10;99.90;;;;;;4969511;28;20113;-78
2023/11/30 08:45:29;;;;;;;11.73;6.13;;;8.00;99.90;;;;;;4968461;28;20058;-78
2023/11/30 08:47:55;;;;;;;12.25;6.13;;;8.10;99.90;;;;;;4969495;28;20142;-78
2023/11/30 08:50:21;;;;;;;13.15;6.25;;;8.10;99.90;;;;;;4971039;28;20575;-76
2023/11/30 08:52:46;;;;;;;13.50;6.90;;;8.10;99.90;;;;;;4969621;28;20413;-76
2023/11/30 08:55:12;;;;;;;10.43;5.80;;;8.10;99.90;;;;;;4970166;28;20093;-76
2023/11/30 08:57:39;;;;;;;10.73;5.80;;;8.10;99.90;;;;;;4970114;28;20436;-76
2023/11/30 09:00:07;;;;;;;13.35;6.28;;;8.10;99.90;;;;;;4971126;28;20022;-76
2023/11/30 09:02:34;;;;;;;14.77;6.47;;;8.00;99.90;;;;;;4970707;28;20023;-76
2023/11/30 09:04:59;;;;;;;16.98;6.45;;;8.00;99.90;;;;;;4972026;28;20026;-76
2023/11/30 09:07:25;;;;;;;12.27;6.80;;;8.00;99.90;;;;;;4972166;28;20062;-76
2023/11/30 09:09:50;;;;;;;13.60;7.93;;;8.00;99.90;;;;;;4969658;28;20497;-77
2023/11/30 09:12:16;;;;;;;14.02;7.80;;;8.00;99.90;;;;;;4969408;28;20030;-77
2023/11/30 09:14:42;;;;;;;15.15;7.43;;;8.00;99.90;;;;;;4970427;28;20034;-77
2023/11/30 09:17:07;;;;;;;15.48;6.78;;;8.00;99.90;;;;;;4970068;28;20050;-77
2023/11/30 09:19:33;;;;;;;14.02;6.50;;;8.00;99.90;;;;;;4970225;28;20030;-76
2023/11/30 09:21:58;;;;;;;12.48;6.35;;;8.00;99.90;;;;;;4970665;28;20081;-77
2023/11/30 09:24:24;;;;;;;11.50;6.53;;;8.00;99.90;;;;;;4973298;28;20016;-79
2023/11/30 09:26:53;;;;;;;12.25;6.30;;;8.00;99.90;;;;;;4970241;28;20038;-75
2023/11/30 09:29:19;;;;;;;7.35;3.40;;;8.00;99.90;;;;;;4970107;28;20023;-72
2023/11/30 09:31:47;;;;;;;5.13;2.45;;;9.50;99.90;;;;;;4970543;28;20393;-73
2023/11/30 09:34:13;;;;;;;11.10;2.92;;;12.00;99.90;;;;;;4969812;28;20030;-71
2023/11/30 09:36:40;;;;;;;4.00;2.90;;;12.60;99.90;;;;;;4967318;28;20034;-74
2023/11/30 09:39:07;;;;;;;5.10;2.97;;;12.80;99.90;;;;;;4970158;28;20086;-71
2023/11/30 09:41:36;;;;;;;4.22;3.08;;;12.80;99.90;;;;;;4969525;28;20030;-71
2023/11/30 09:44:03;;;;;;;6.55;2.92;;;12.70;99.40;;;;;;4970296;28;20115;-76
2023/11/30 09:46:30;;;;;;;4.63;3.38;;;12.70;99.10;;;;;;4968937;28;20023;-77
2023/11/30 09:48:56;;;;;;;5.47;3.50;;;11.10;99.90;;;;;;4976711;28;20589;-76
2023/11/30 09:51:25;;;;;;;8.30;3.80;;;9.80;99.90;;;;;;4974887;28;20038;-77
2023/11/30 09:53:50;;;;;;;10.52;4.00;;;9.10;99.90;;;;;;4977014;28;20102;-77
2023/11/30 09:56:16;;;;;;;5.32;3.55;;;8.80;99.90;;;;;;4975031;28;20463;-77
2023/11/30 09:58:42;;;;;;;6.28;4.32;;;8.60;99.90;;;;;;4978830;28;20062;-74
2023/11/30 10:01:08;;;;;;;9.27;4.30;;;8.50;99.90;;;;;;4977087;28;20023;-77
2023/11/30 10:03:34;;;;;;;6.10;3.95;;;8.40;99.90;;;;;;4979626;28;20038;-79
2023/11/30 10:06:03;;;;;;;6.32;3.95;;;8.30;99.90;;;;;;4978452;28;20441;-77
2023/11/30 10:08:29;;;;;;;9.05;4.70;;;8.30;99.90;;;;;;4978158;28;20662;-78
2023/11/30 10:10:55;;;;;;;7.80;4.47;;;8.30;99.90;;;;;;4976017;28;20089;-76
2023/11/30 10:13:20;;;;;;;7.88;4.38;;;8.30;99.90;;;;;;4973246;28;20035;-77
2023/11/30 10:15:46;;;;;;;10.25;5.13;;;8.30;99.90;;;;;;4972519;28;20157;-77
2023/11/30 10:18:12;;;;;;;9.07;4.68;;;8.20;99.90;;;;;;4971549;28;20035;-78
2023/11/30 10:20:38;;;;;;;9.48;3.97;;;8.20;99.90;;;;;;4971409;28;20707;-77
2023/11/30 10:23:10;;;;;;;10.43;5.55;;;8.20;99.90;;;;;;4968423;28;20023;-77
2023/11/30 10:25:37;;;;;;;9.15;4.60;;;8.20;99.90;;;;;;4973055;28;20037;-78
2023/11/30 10:28:03;;;;;;;6.40;3.97;;;8.20;99.90;;;;;;4969738;28;20029;-77
2023/11/30 10:30:32;;;;;;;7.97;3.90;;;8.20;99.90;;;;;;4967142;28;20045;-77
2023/11/30 10:33:00;;;;;;;8.40;3.67;;;8.20;99.90;;;;;;4966580;28;20027;-77
2023/11/30 10:35:29;;;;;;;8.63;4.80;;;8.20;99.90;;;;;;4969399;28;20630;-77
2023/11/30 10:37:57;;;;;;;7.82;4.13;;;8.20;99.90;;;;;;4968954;28;20038;-77
2023/11/30 10:40:25;;;;;;;9.77;4.18;;;8.20;99.90;;;;;;4970961;28;20046;-74
2023/11/30 10:42:51;;;;;;;6.57;3.58;;;8.20;99.90;;;;;;4970185;28;20431;-77
2023/11/30 10:45:19;;;;;;;6.18;4.20;;;8.20;99.90;;;;;;4968392;28;20019;-78
2023/11/30 10:47:47;;;;;;;5.32;3.78;;;8.20;99.90;;;;;;4969330;28;20027;-77
2023/11/30 10:50:13;;;;;;;7.05;4.00;;;8.20;99.90;;;;;;4974673;28;20121;-77
2023/11/30 10:52:40;;;;;;;8.15;4.25;;;8.20;99.90;;;;;;4972660;28;20106;-77
2023/11/30 10:55:09;;;;;;;5.72;3.63;;;8.20;99.90;;;;;;4967935;28;20090;-77
2023/11/30 10:57:34;;;;;;;6.50;4.28;;;8.20;99.90;;;;;;4968029;28;20053;-76
2023/11/30 11:00:00;;;;;;;6.63;3.75;;;8.20;99.90;;;;;;4969562;28;20022;-76
2023/11/30 11:02:41;;;;;;;8.32;4.35;;;8.10;99.90;;;;;;4972464;28;20061;-77
2023/11/30 11:05:15;;;;;;;7.95;3.78;;;8.20;99.90;;;;;;4961866;28;20038;-78
2023/11/30 11:07:48;;;;;;;6.78;3.90;;;8.20;99.90;;;;;;4971110;28;20465;-77
2023/11/30 11:10:44;;;;;;;7.30;4.22;;;8.20;99.90;;;;;;4969069;28;20026;-78
2023/11/30 11:13:17;;;;;;;5.78;3.80;;;8.10;99.90;;;;;;4966138;28;20101;-78
2023/11/30 11:15:43;;;;;;;6.60;3.92;;;8.20;99.90;;;;;;4967680;28;20365;-79
2023/11/30 11:18:15;;;;;;;8.05;3.63;;;8.10;99.90;;;;;;4968958;28;20059;-77
2023/11/30 11:20:43;;;;;;;5.25;3.78;;;8.10;99.90;;;;;;4969197;28;20015;-77
2023/11/30 11:23:09;;;;;;;5.38;3.65;;;8.20;99.90;;;;;;4967576;28;20073;-77
2023/11/30 11:25:37;;;;;;;9.27;4.03;;;8.20;99.90;;;;;;4965410;28;20027;-77
2023/11/30 11:28:03;;;;;;;5.82;4.22;;;8.20;99.90;;;;;;4967576;28;20098;-76
2023/11/30 11:30:29;;;;;;;5.70;3.95;;;8.20;99.90;;;;;;4968527;28;20652;-77
2023/11/30 11:32:58;;;;;;;6.18;3.40;;;8.20;99.90;;;;;;4967207;28;20039;-77
2023/11/30 11:35:26;;;;;;;5.32;4.00;;;8.20;99.90;;;;;;4968150;28;20027;-77
2023/11/30 11:37:54;;;;;;;6.22;3.40;;;8.20;99.90;;;;;;4970806;28;20061;-77
2023/11/30 11:40:21;;;;;;;5.65;3.42;;;8.20;99.90;;;;;;4973545;28;20019;-77
2023/11/30 11:42:47;;;;;;;4.85;3.25;;;8.20;99.90;;;;;;4968140;28;20019;-77
2023/11/30 11:45:14;;;;;;;10.98;4.13;;;8.10;99.90;;;;;;4968440;28;20018;-78
2023/11/30 11:47:39;;;;;;;5.97;3.40;;;8.10;99.90;;;;;;4988339;28;20014;-76
2023/11/30 11:50:06;;;;;;;7.07;3.88;;;8.20;99.90;;;;;;4969111;28;20031;-76
2023/11/30 11:52:32;;;;;;;6.93;3.55;;;8.20;99.90;;;;;;4968562;28;20030;-78
2023/11/30 11:55:10;;;;;;;4.72;3.60;;;8.20;99.90;;;;;;4968140;28;20035;-78
2023/11/30 11:57:43;;;;;;;7.28;3.60;;;8.20;99.90;;;;;;4966434;28;20038;-76
2023/11/30 12:00:14;;;;;;;4.70;3.60;;;8.10;99.90;;;;;;4968641;28;20027;-77
2023/11/30 12:02:39;;;;;;;9.65;3.83;;;8.20;99.90;;;;;;4967892;28;20023;-76
2023/11/30 12:05:26;;;;;;;5.35;3.47;;;8.20;99.90;;;;;;4968493;28;20030;-77
2023/11/30 12:07:56;;;;;;;5.07;3.83;;;8.20;99.90;;;;;;4968687;28;20085;-76
2023/11/30 12:10:41;;;;;;;6.22;3.75;;;8.20;99.90;;;;;;4972433;28;20109;-77
2023/11/30 12:13:14;;;;;;;4.95;3.35;;;8.20;99.90;;;;;;4968421;28;20130;-77
2023/11/30 12:15:40;;;;;;;5.82;3.90;;;8.20;99.90;;;;;;4967211;28;20080;-77
2023/11/30 12:18:06;;;;;;;6.38;4.13;;;8.20;99.90;;;;;;4971644;28;20019;-77
2023/11/30 12:20:32;;;;;;;8.43;4.75;;;8.20;99.90;;;;;;4969654;28;20068;-77
2023/11/30 12:22:58;;;;;;;5.63;3.60;;;8.20;99.90;;;;;;4972723;28;20062;-76
2023/11/30 12:25:24;;;;;;;8.95;4.57;;;8.20;99.90;;;;;;4971307;28;20015;-78
2023/11/30 12:27:50;;;;;;;10.20;4.03;;;8.20;99.90;;;;;;4971827;28;20018;-77
2023/11/30 12:30:18;;;;;;;6.50;4.28;;;8.20;99.90;;;;;;4971251;28;20492;-76
2023/11/30 12:32:43;;;;;;;6.70;4.20;;;8.10;99.90;;;;;;4970518;28;20053;-77
2023/11/30 12:35:09;;;;;;;7.55;4.45;;;8.20;99.90;;;;;;4970870;28;20421;-79
2023/11/30 12:37:35;;;;;;;10.00;4.70;;;8.20;99.90;;;;;;4970910;28;20026;-77
2023/11/30 12:40:03;;;;;;;8.40;4.38;;;8.10;99.90;;;;;;4971616;28;20019;-77
2023/11/30 12:42:28;;;;;;;7.63;4.30;;;8.20;99.90;;;;;;4969430;28;20019;-78
2023/11/30 12:44:54;;;;;;;12.20;4.40;;;8.20;99.90;;;;;;4971413;28;20511;-77